sensor_id;sensor_type;location;lat;lon;timestamp;temperature;humidity
17813;DHT22;9030;50.792;8.320;2023-07-31T00:01:15;14.80;99.90
17813;DHT22;9030;50.792;8.320;2023-07-31T00:03:43;14.80;99.90
17813;DHT22;9030;50.792;8.320;2023-07-31T00:06:09;14.90;99.90
17813;DHT22;9030;50.792;8.320;2023-07-31T00:08:36;14.90;99.90
17813;DHT22;9030;50.792;8.320;2023-07-31T00:11:02;15.00;99.90
17813;DHT22;9030;50.792;8.320;2023-07-31T00:13:29;15.00;99.90
17813;DHT22;9030;50.792;8.320;2023-07-31T00:15:56;15.00;99.90
17813;DHT22;9030;50.792;8.320;2023-07-31T00:18:22;15.00;99.90
17813;DHT22;9030;50.792;8.320;2023-07-31T00:20:50;15.00;99.90
17813;DHT22;9030;50.792;8.320;2023-07-31T00:23:17;15.00;99.90
17813;DHT22;9030;50.792;8.320;2023-07-31T00:25:43;15.00;99.90
17813;DHT22;9030;50.792;8.320;2023-07-31T00:28:10;15.00;99.90
17813;DHT22;9030;50.792;8.320;2023-07-31T00:30:37;15.00;99.90
17813;DHT22;9030;50.792;8.320;2023-07-31T00:33:03;14.90;99.90
17813;DHT22;9030;50.792;8.320;2023-07-31T00:35:30;15.00;99.90
17813;DHT22;9030;50.792;8.320;2023-07-31T00:38:00;15.00;99.90
17813;DHT22;9030;50.792;8.320;2023-07-31T00:40:26;15.00;99.90
17813;DHT22;9030;50.792;8.320;2023-07-31T00:42:53;14.90;99.90
17813;DHT22;9030;50.792;8.320;2023-07-31T00:45:19;14.90;99.90
17813;DHT22;9030;50.792;8.320;2023-07-31T00:47:48;14.90;99.90
17813;DHT22;9030;50.792;8.320;2023-07-31T00:50:15;15.00;99.90
17813;DHT22;9030;50.792;8.320;2023-07-31T00:52:41;15.00;99.90
17813;DHT22;9030;50.792;8.320;2023-07-31T00:55:10;15.00;99.90
17813;DHT22;9030;50.792;8.320;2023-07-31T00:57:37;15.00;99.90
17813;DHT22;9030;50.792;8.320;2023-07-31T01:00:06;15.00;99.90
17813;DHT22;9030;50.792;8.320;2023-07-31T01:02:33;15.00;99.90
17813;DHT22;9030;50.792;8.320;2023-07-31T01:04:59;15.00;99.90
17813;DHT22;9030;50.792;8.320;2023-07-31T01:07:31;15.10;99.90
17813;DHT22;9030;50.792;8.320;2023-07-31T01:10:06;15.00;99.90
17813;DHT22;9030;50.792;8.320;2023-07-31T01:12:37;15.00;99.90
17813;DHT22;9030;50.792;8.320;2023-07-31T01:15:05;15.00;99.90
17813;DHT22;9030;50.792;8.320;2023-07-31T01:17:34;15.00;99.90
17813;DHT22;9030;50.792;8.320;2023-07-31T01:20:04;14.90;99.90
17813;DHT22;9030;50.792;8.320;2023-07-31T01:22:47;14.90;99.90
17813;DHT22;9030;50.792;8.320;2023-07-31T01:25:25;14.90;99.90
17813;DHT22;9030;50.792;8.320;2023-07-31T01:28:04;14.90;99.90
17813;DHT22;9030;50.792;8.320;2023-07-31T01:30:33;14.80;99.90
17813;DHT22;9030;50.792;8.320;2023-07-31T01:33:02;14.80;99.90
17813;DHT22;9030;50.792;8.320;2023-07-31T01:35:32;14.80;99.90
17813;DHT22;9030;50.792;8.320;2023-07-31T01:37:59;14.80;99.90
17813;DHT22;9030;50.792;8.320;2023-07-31T01:40:26;14.80;99.90
17813;DHT22;9030;50.792;8.320;2023-07-31T01:42:52;14.80;99.90
17813;DHT22;9030;50.792;8.320;2023-07-31T01:45:20;14.80;99.90
17813;DHT22;9030;50.792;8.320;2023-07-31T01:47:47;14.80;99.90
17813;DHT22;9030;50.792;8.320;2023-07-31T01:50:14;14.80;99.90
17813;DHT22;9030;50.792;8.320;2023-07-31T01:52:40;14.90;99.90
17813;DHT22;9030;50.792;8.320;2023-07-31T01:55:07;15.10;99.90
17813;DHT22;9030;50.792;8.320;2023-07-31T01:57:34;15.10;99.90
17813;DHT22;9030;50.792;8.320;2023-07-31T02:00:00;15.10;99.90
17813;DHT22;9030;50.792;8.320;2023-07-31T02:02:29;15.10;99.90
17813;DHT22;9030;50.792;8.320;2023-07-31T02:04:55;15.10;99.90
17813;DHT22;9030;50.792;8.320;2023-07-31T02:07:22;15.10;99.90
17813;DHT22;9030;50.792;8.320;2023-07-31T02:09:48;15.20;99.90
17813;DHT22;9030;50.792;8.320;2023-07-31T02:12:15;15.20;99.90
17813;DHT22;9030;50.792;8.320;2023-07-31T02:14:42;15.20;99.90
17813;DHT22;9030;50.792;8.320;2023-07-31T02:17:09;15.20;99.90
17813;DHT22;9030;50.792;8.320;2023-07-31T02:19:37;15.20;99.90
17813;DHT22;9030;50.792;8.320;2023-07-31T02:22:04;15.20;99.90
17813;DHT22;9030;50.792;8.320;2023-07-31T02:24:30;15.30;99.90
17813;DHT22;9030;50.792;8.320;2023-07-31T02:26:57;15.20;99.90
17813;DHT22;9030;50.792;8.320;2023-07-31T02:29:24;15.20;99.90
17813;DHT22;9030;50.792;8.320;2023-07-31T02:31:50;15.20;99.90
17813;DHT22;9030;50.792;8.320;2023-07-31T02:34:17;15.20;99.90
17813;DHT22;9030;50.792;8.320;2023-07-31T02:36:45;15.20;99.90
17813;DHT22;9030;50.792;8.320;2023-07-31T02:39:11;15.10;99.90
17813;DHT22;9030;50.792;8.320;2023-07-31T02:41:38;15.10;99.90
17813;DHT22;9030;50.792;8.320;2023-07-31T02:44:04;15.10;99.90
17813;DHT22;9030;50.792;8.320;2023-07-31T02:46:31;15.10;99.90
17813;DHT22;9030;50.792;8.320;2023-07-31T02:48:58;15.20;99.90
17813;DHT22;9030;50.792;8.320;2023-07-31T02:51:24;15.10;99.90
17813;DHT22;9030;50.792;8.320;2023-07-31T02:53:52;15.10;99.90
17813;DHT22;9030;50.792;8.320;2023-07-31T02:56:19;15.00;99.90
17813;DHT22;9030;50.792;8.320;2023-07-31T02:58:45;15.00;99.90
17813;DHT22;9030;50.792;8.320;2023-07-31T03:01:12;15.00;99.90
17813;DHT22;9030;50.792;8.320;2023-07-31T03:03:39;15.00;99.90
17813;DHT22;9030;50.792;8.320;2023-07-31T03:06:05;15.00;99.90
17813;DHT22;9030;50.792;8.320;2023-07-31T03:08:32;15.00;99.90
17813;DHT22;9030;50.792;8.320;2023-07-31T03:11:00;14.90;99.90
17813;DHT22;9030;50.792;8.320;2023-07-31T03:13:26;14.90;99.90
17813;DHT22;9030;50.792;8.320;2023-07-31T03:15:53;14.90;99.90
17813;DHT22;9030;50.792;8.320;2023-07-31T03:18:20;14.90;99.90
17813;DHT22;9030;50.792;8.320;2023-07-31T03:20:46;14.90;99.90
17813;DHT22;9030;50.792;8.320;2023-07-31T03:23:13;14.90;99.90
17813;DHT22;9030;50.792;8.320;2023-07-31T03:25:54;14.90;99.90
17813;DHT22;9030;50.792;8.320;2023-07-31T03:28:22;14.90;99.90
17813;DHT22;9030;50.792;8.320;2023-07-31T03:30:49;14.90;99.90
17813;DHT22;9030;50.792;8.320;2023-07-31T03:33:15;14.80;99.90
17813;DHT22;9030;50.792;8.320;2023-07-31T03:35:42;14.80;99.90
17813;DHT22;9030;50.792;8.320;2023-07-31T03:38:09;14.80;99.90
17813;DHT22;9030;50.792;8.320;2023-07-31T03:40:35;14.80;99.90
17813;DHT22;9030;50.792;8.320;2023-07-31T03:43:02;14.80;99.90
17813;DHT22;9030;50.792;8.320;2023-07-31T03:45:30;14.80;99.90
17813;DHT22;9030;50.792;8.320;2023-07-31T03:47:56;14.80;99.90
17813;DHT22;9030;50.792;8.320;2023-07-31T03:50:23;14.80;99.90
17813;DHT22;9030;50.792;8.320;2023-07-31T03:52:50;14.80;99.90
17813;DHT22;9030;50.792;8.320;2023-07-31T03:55:17;14.80;99.90
17813;DHT22;9030;50.792;8.320;2023-07-31T03:57:44;14.80;99.90
17813;DHT22;9030;50.792;8.320;2023-07-31T04:00:11;14.80;99.90
17813;DHT22;9030;50.792;8.320;2023-07-31T04:02:39;14.80;99.90
17813;DHT22;9030;50.792;8.320;2023-07-31T04:05:07;14.80;99.90
17813;DHT22;9030;50.792;8.320;2023-07-31T04:07:34;14.80;99.90
17813;DHT22;9030;50.792;8.320;2023-07-31T04:10:01;14.80;99.90
17813;DHT22;9030;50.792;8.320;2023-07-31T04:12:28;14.80;99.90
17813;DHT22;9030;50.792;8.320;2023-07-31T04:14:55;14.80;99.90
17813;DHT22;9030;50.792;8.320;2023-07-31T04:17:21;14.80;99.90
17813;DHT22;9030;50.792;8.320;2023-07-31T04:19:49;14.90;99.90
17813;DHT22;9030;50.792;8.320;2023-07-31T04:22:16;14.90;99.90
17813;DHT22;9030;50.792;8.320;2023-07-31T04:24:43;14.90;99.90
17813;DHT22;9030;50.792;8.320;2023-07-31T04:27:09;15.00;99.90
17813;DHT22;9030;50.792;8.320;2023-07-31T04:29:36;15.00;99.90
17813;DHT22;9030;50.792;8.320;2023-07-31T04:32:03;15.00;99.90
17813;DHT22;9030;50.792;8.320;2023-07-31T04:34:29;15.00;99.90
17813;DHT22;9030;50.792;8.320;2023-07-31T04:36:57;15.00;99.90
17813;DHT22;9030;50.792;8.320;2023-07-31T04:39:24;15.00;99.90
17813;DHT22;9030;50.792;8.320;2023-07-31T04:41:50;15.00;99.90
17813;DHT22;9030;50.792;8.320;2023-07-31T04:44:17;15.00;99.90
17813;DHT22;9030;50.792;8.320;2023-07-31T04:46:44;15.00;99.90
17813;DHT22;9030;50.792;8.320;2023-07-31T04:49:11;15.00;99.90
17813;DHT22;9030;50.792;8.320;2023-07-31T04:51:38;15.10;99.90
17813;DHT22;9030;50.792;8.320;2023-07-31T04:54:06;15.10;99.90
17813;DHT22;9030;50.792;8.320;2023-07-31T04:56:32;15.10;99.90
17813;DHT22;9030;50.792;8.320;2023-07-31T04:58:59;15.10;99.90
17813;DHT22;9030;50.792;8.320;2023-07-31T05:01:26;15.10;99.90
17813;DHT22;9030;50.792;8.320;2023-07-31T05:03:52;15.10;99.90
17813;DHT22;9030;50.792;8.320;2023-07-31T05:06:19;15.10;99.90
17813;DHT22;9030;50.792;8.320;2023-07-31T05:08:46;15.10;99.90
17813;DHT22;9030;50.792;8.320;2023-07-31T05:11:14;15.10;99.90
17813;DHT22;9030;50.792;8.320;2023-07-31T05:13:40;15.20;99.90
17813;DHT22;9030;50.792;8.320;2023-07-31T05:16:07;15.20;99.90
17813;DHT22;9030;50.792;8.320;2023-07-31T05:18:33;15.20;99.90
17813;DHT22;9030;50.792;8.320;2023-07-31T05:21:00;15.20;99.90
17813;DHT22;9030;50.792;8.320;2023-07-31T05:23:27;15.20;99.90
17813;DHT22;9030;50.792;8.320;2023-07-31T05:25:54;15.20;99.90
17813;DHT22;9030;50.792;8.320;2023-07-31T05:28:22;15.30;99.90
17813;DHT22;9030;50.792;8.320;2023-07-31T05:30:49;15.30;99.90
17813;DHT22;9030;50.792;8.320;2023-07-31T05:33:15;15.20;99.90
17813;DHT22;9030;50.792;8.320;2023-07-31T05:35:42;15.30;99.90
17813;DHT22;9030;50.792;8.320;2023-07-31T05:38:10;15.30;99.90
17813;DHT22;9030;50.792;8.320;2023-07-31T05:40:36;15.20;99.90
17813;DHT22;9030;50.792;8.320;2023-07-31T05:43:03;15.30;99.90
17813;DHT22;9030;50.792;8.320;2023-07-31T05:45:33;15.30;99.90
17813;DHT22;9030;50.792;8.320;2023-07-31T05:47:59;15.40;99.90
17813;DHT22;9030;50.792;8.320;2023-07-31T05:50:26;15.40;99.90
17813;DHT22;9030;50.792;8.320;2023-07-31T05:52:53;15.40;99.90
17813;DHT22;9030;50.792;8.320;2023-07-31T05:55:19;15.40;99.90
17813;DHT22;9030;50.792;8.320;2023-07-31T05:57:46;15.40;99.90
17813;DHT22;9030;50.792;8.320;2023-07-31T06:00:13;15.50;99.90
17813;DHT22;9030;50.792;8.320;2023-07-31T06:02:41;15.60;99.90
17813;DHT22;9030;50.792;8.320;2023-07-31T06:05:08;15.60;99.90
17813;DHT22;9030;50.792;8.320;2023-07-31T06:07:35;15.60;99.90
17813;DHT22;9030;50.792;8.320;2023-07-31T06:10:02;15.60;99.90
17813;DHT22;9030;50.792;8.320;2023-07-31T06:12:31;15.60;99.90
17813;DHT22;9030;50.792;8.320;2023-07-31T06:14:58;15.70;99.90
17813;DHT22;9030;50.792;8.320;2023-07-31T06:17:24;15.70;99.90
17813;DHT22;9030;50.792;8.320;2023-07-31T06:19:53;15.70;99.90
17813;DHT22;9030;50.792;8.320;2023-07-31T06:22:19;15.70;99.90
17813;DHT22;9030;50.792;8.320;2023-07-31T06:24:46;15.80;99.90
17813;DHT22;9030;50.792;8.320;2023-07-31T06:27:13;15.80;99.90
17813;DHT22;9030;50.792;8.320;2023-07-31T06:29:39;15.80;99.90
17813;DHT22;9030;50.792;8.320;2023-07-31T06:32:07;15.90;99.90
17813;DHT22;9030;50.792;8.320;2023-07-31T06:34:33;16.00;99.90
17813;DHT22;9030;50.792;8.320;2023-07-31T06:37:01;16.10;99.90
17813;DHT22;9030;50.792;8.320;2023-07-31T06:39:28;16.20;99.90
17813;DHT22;9030;50.792;8.320;2023-07-31T06:41:55;16.20;99.90
17813;DHT22;9030;50.792;8.320;2023-07-31T06:44:21;16.30;99.90
17813;DHT22;9030;50.792;8.320;2023-07-31T06:46:48;16.30;99.90
17813;DHT22;9030;50.792;8.320;2023-07-31T06:49:14;16.50;99.90
17813;DHT22;9030;50.792;8.320;2023-07-31T06:51:41;16.60;99.90
17813;DHT22;9030;50.792;8.320;2023-07-31T06:54:09;16.80;99.90
17813;DHT22;9030;50.792;8.320;2023-07-31T06:56:36;16.90;99.90
17813;DHT22;9030;50.792;8.320;2023-07-31T06:59:03;17.00;99.90
17813;DHT22;9030;50.792;8.320;2023-07-31T07:01:29;17.10;99.90
17813;DHT22;9030;50.792;8.320;2023-07-31T07:03:56;17.30;99.90
17813;DHT22;9030;50.792;8.320;2023-07-31T07:06:23;17.20;99.90
17813;DHT22;9030;50.792;8.320;2023-07-31T07:08:49;17.10;99.90
17813;DHT22;9030;50.792;8.320;2023-07-31T07:11:17;17.10;99.90
17813;DHT22;9030;50.792;8.320;2023-07-31T07:13:44;17.00;99.90
17813;DHT22;9030;50.792;8.320;2023-07-31T07:16:10;17.00;99.90
17813;DHT22;9030;50.792;8.320;2023-07-31T07:18:37;17.10;99.90
17813;DHT22;9030;50.792;8.320;2023-07-31T07:21:03;17.00;99.90
17813;DHT22;9030;50.792;8.320;2023-07-31T07:23:30;16.90;99.90
17813;DHT22;9030;50.792;8.320;2023-07-31T07:25:57;16.90;99.90
17813;DHT22;9030;50.792;8.320;2023-07-31T07:28:25;16.90;99.90
17813;DHT22;9030;50.792;8.320;2023-07-31T07:30:52;16.90;99.90
17813;DHT22;9030;50.792;8.320;2023-07-31T07:33:19;16.90;99.90
17813;DHT22;9030;50.792;8.320;2023-07-31T07:35:46;16.90;99.90
17813;DHT22;9030;50.792;8.320;2023-07-31T07:38:13;16.90;99.90
17813;DHT22;9030;50.792;8.320;2023-07-31T07:40:40;16.90;99.90
17813;DHT22;9030;50.792;8.320;2023-07-31T07:43:07;16.90;99.90
17813;DHT22;9030;50.792;8.320;2023-07-31T07:45:35;17.00;99.90
17813;DHT22;9030;50.792;8.320;2023-07-31T07:48:02;17.10;99.90
17813;DHT22;9030;50.792;8.320;2023-07-31T07:50:29;17.20;99.90
17813;DHT22;9030;50.792;8.320;2023-07-31T07:52:55;17.20;99.90
17813;DHT22;9030;50.792;8.320;2023-07-31T07:55:22;17.30;99.90
17813;DHT22;9030;50.792;8.320;2023-07-31T07:57:48;17.40;99.90
17813;DHT22;9030;50.792;8.320;2023-07-31T08:00:16;17.50;99.90
17813;DHT22;9030;50.792;8.320;2023-07-31T08:02:45;17.50;99.90
17813;DHT22;9030;50.792;8.320;2023-07-31T08:05:11;17.50;99.90
17813;DHT22;9030;50.792;8.320;2023-07-31T08:07:38;17.50;99.90
17813;DHT22;9030;50.792;8.320;2023-07-31T08:10:05;17.50;99.90
17813;DHT22;9030;50.792;8.320;2023-07-31T08:12:32;17.40;99.90
17813;DHT22;9030;50.792;8.320;2023-07-31T08:14:59;17.30;99.90
17813;DHT22;9030;50.792;8.320;2023-07-31T08:17:26;17.20;99.90
17813;DHT22;9030;50.792;8.320;2023-07-31T08:19:54;17.20;99.90
17813;DHT22;9030;50.792;8.320;2023-07-31T08:22:23;17.20;99.90
17813;DHT22;9030;50.792;8.320;2023-07-31T08:24:50;17.20;99.90
17813;DHT22;9030;50.792;8.320;2023-07-31T08:27:16;17.30;99.90
17813;DHT22;9030;50.792;8.320;2023-07-31T08:29:43;17.40;99.90
17813;DHT22;9030;50.792;8.320;2023-07-31T08:32:10;17.40;99.90
17813;DHT22;9030;50.792;8.320;2023-07-31T08:34:36;17.50;99.90
17813;DHT22;9030;50.792;8.320;2023-07-31T08:37:04;17.70;99.90
17813;DHT22;9030;50.792;8.320;2023-07-31T08:39:31;17.70;99.90
17813;DHT22;9030;50.792;8.320;2023-07-31T08:41:58;17.70;99.90
17813;DHT22;9030;50.792;8.320;2023-07-31T08:44:26;17.60;99.90
17813;DHT22;9030;50.792;8.320;2023-07-31T08:46:52;17.60;99.90
17813;DHT22;9030;50.792;8.320;2023-07-31T08:49:20;17.60;99.90
17813;DHT22;9030;50.792;8.320;2023-07-31T08:51:49;17.60;99.90
17813;DHT22;9030;50.792;8.320;2023-07-31T08:54:17;17.70;99.90
17813;DHT22;9030;50.792;8.320;2023-07-31T08:56:44;17.80;99.90
17813;DHT22;9030;50.792;8.320;2023-07-31T08:59:11;18.10;99.90
17813;DHT22;9030;50.792;8.320;2023-07-31T09:01:44;18.50;99.90
17813;DHT22;9030;50.792;8.320;2023-07-31T09:04:16;18.90;99.90
17813;DHT22;9030;50.792;8.320;2023-07-31T09:06:44;18.80;99.90
17813;DHT22;9030;50.792;8.320;2023-07-31T09:09:11;18.60;99.90
17813;DHT22;9030;50.792;8.320;2023-07-31T09:11:39;18.40;99.90
17813;DHT22;9030;50.792;8.320;2023-07-31T09:14:07;18.20;99.90
17813;DHT22;9030;50.792;8.320;2023-07-31T09:16:34;18.00;99.90
17813;DHT22;9030;50.792;8.320;2023-07-31T09:19:01;17.90;99.90
17813;DHT22;9030;50.792;8.320;2023-07-31T09:21:29;17.70;99.90
17813;DHT22;9030;50.792;8.320;2023-07-31T09:23:55;17.60;99.90
17813;DHT22;9030;50.792;8.320;2023-07-31T09:26:32;17.60;99.90
17813;DHT22;9030;50.792;8.320;2023-07-31T09:29:01;17.60;99.90
17813;DHT22;9030;50.792;8.320;2023-07-31T09:31:38;17.70;99.90
17813;DHT22;9030;50.792;8.320;2023-07-31T09:34:05;17.70;99.90
17813;DHT22;9030;50.792;8.320;2023-07-31T09:36:32;17.60;99.90
17813;DHT22;9030;50.792;8.320;2023-07-31T09:39:02;17.40;99.90
17813;DHT22;9030;50.792;8.320;2023-07-31T09:41:29;17.30;99.90
17813;DHT22;9030;50.792;8.320;2023-07-31T09:43:56;17.30;99.90
17813;DHT22;9030;50.792;8.320;2023-07-31T09:46:27;17.30;99.90
17813;DHT22;9030;50.792;8.320;2023-07-31T09:49:06;17.30;99.90
17813;DHT22;9030;50.792;8.320;2023-07-31T09:51:34;17.20;99.90
17813;DHT22;9030;50.792;8.320;2023-07-31T09:54:08;17.20;99.90
17813;DHT22;9030;50.792;8.320;2023-07-31T09:56:35;17.20;99.90
17813;DHT22;9030;50.792;8.320;2023-07-31T09:59:04;17.20;99.90
17813;DHT22;9030;50.792;8.320;2023-07-31T10:01:32;17.20;99.90
17813;DHT22;9030;50.792;8.320;2023-07-31T10:04:00;17.20;99.90
17813;DHT22;9030;50.792;8.320;2023-07-31T10:06:28;17.20;99.90
17813;DHT22;9030;50.792;8.320;2023-07-31T10:08:55;17.20;99.90
17813;DHT22;9030;50.792;8.320;2023-07-31T10:11:24;17.30;99.90
17813;DHT22;9030;50.792;8.320;2023-07-31T10:13:51;17.30;99.90
17813;DHT22;9030;50.792;8.320;2023-07-31T10:16:18;17.20;99.90
17813;DHT22;9030;50.792;8.320;2023-07-31T10:18:47;17.20;99.90
17813;DHT22;9030;50.792;8.320;2023-07-31T10:21:15;17.10;99.90
17813;DHT22;9030;50.792;8.320;2023-07-31T10:23:43;17.10;99.90
17813;DHT22;9030;50.792;8.320;2023-07-31T10:26:11;17.10;99.90
17813;DHT22;9030;50.792;8.320;2023-07-31T10:28:39;17.10;99.90
17813;DHT22;9030;50.792;8.320;2023-07-31T10:31:07;17.10;99.90
17813;DHT22;9030;50.792;8.320;2023-07-31T10:33:34;17.10;99.90
17813;DHT22;9030;50.792;8.320;2023-07-31T10:36:17;17.20;99.90
17813;DHT22;9030;50.792;8.320;2023-07-31T10:38:44;17.20;99.90
17813;DHT22;9030;50.792;8.320;2023-07-31T10:41:11;17.20;99.90
17813;DHT22;9030;50.792;8.320;2023-07-31T10:43:38;17.30;99.90
17813;DHT22;9030;50.792;8.320;2023-07-31T10:46:08;17.20;99.90
17813;DHT22;9030;50.792;8.320;2023-07-31T10:48:35;17.30;99.90
17813;DHT22;9030;50.792;8.320;2023-07-31T10:51:08;17.30;99.90
17813;DHT22;9030;50.792;8.320;2023-07-31T10:53:36;17.30;99.90
17813;DHT22;9030;50.792;8.320;2023-07-31T10:56:04;17.40;99.90
17813;DHT22;9030;50.792;8.320;2023-07-31T10:58:32;17.60;99.90
17813;DHT22;9030;50.792;8.320;2023-07-31T11:01:00;17.60;99.90
17813;DHT22;9030;50.792;8.320;2023-07-31T11:03:41;17.70;99.90
17813;DHT22;9030;50.792;8.320;2023-07-31T11:06:08;17.80;99.90
17813;DHT22;9030;50.792;8.320;2023-07-31T11:08:41;17.90;99.90
17813;DHT22;9030;50.792;8.320;2023-07-31T11:11:10;17.90;99.90
17813;DHT22;9030;50.792;8.320;2023-07-31T11:13:42;18.00;99.90
17813;DHT22;9030;50.792;8.320;2023-07-31T11:16:09;18.10;99.90
17813;DHT22;9030;50.792;8.320;2023-07-31T11:18:38;18.10;99.90
17813;DHT22;9030;50.792;8.320;2023-07-31T11:21:05;18.10;99.90
17813;DHT22;9030;50.792;8.320;2023-07-31T11:23:32;18.10;99.90
17813;DHT22;9030;50.792;8.320;2023-07-31T11:26:00;18.30;99.90
17813;DHT22;9030;50.792;8.320;2023-07-31T11:28:31;18.20;99.90
17813;DHT22;9030;50.792;8.320;2023-07-31T11:30:58;18.30;99.90
17813;DHT22;9030;50.792;8.320;2023-07-31T11:33:24;18.30;99.90
17813;DHT22;9030;50.792;8.320;2023-07-31T11:35:51;18.30;99.90
17813;DHT22;9030;50.792;8.320;2023-07-31T11:38:21;18.30;99.90
17813;DHT22;9030;50.792;8.320;2023-07-31T11:40:49;18.30;99.90
17813;DHT22;9030;50.792;8.320;2023-07-31T11:43:18;18.30;99.90
17813;DHT22;9030;50.792;8.320;2023-07-31T11:45:47;18.40;99.90
17813;DHT22;9030;50.792;8.320;2023-07-31T11:48:19;18.40;99.90
17813;DHT22;9030;50.792;8.320;2023-07-31T11:50:46;18.30;99.90
17813;DHT22;9030;50.792;8.320;2023-07-31T11:53:14;18.30;99.90
17813;DHT22;9030;50.792;8.320;2023-07-31T11:55:42;18.30;99.90
17813;DHT22;9030;50.792;8.320;2023-07-31T11:58:09;18.40;99.90
17813;DHT22;9030;50.792;8.320;2023-07-31T12:00:38;18.50;99.90
17813;DHT22;9030;50.792;8.320;2023-07-31T12:03:04;18.60;99.90
17813;DHT22;9030;50.792;8.320;2023-07-31T12:05:31;18.80;99.90
17813;DHT22;9030;50.792;8.320;2023-07-31T12:07:57;19.00;99.90
17813;DHT22;9030;50.792;8.320;2023-07-31T12:10:28;19.10;99.90
17813;DHT22;9030;50.792;8.320;2023-07-31T12:12:57;19.30;99.90
17813;DHT22;9030;50.792;8.320;2023-07-31T12:15:37;19.50;99.90
17813;DHT22;9030;50.792;8.320;2023-07-31T12:18:05;19.60;99.90
17813;DHT22;9030;50.792;8.320;2023-07-31T12:20:32;19.80;99.90
17813;DHT22;9030;50.792;8.320;2023-07-31T12:23:00;19.70;99.90
17813;DHT22;9030;50.792;8.320;2023-07-31T12:25:33;19.60;99.90
17813;DHT22;9030;50.792;8.320;2023-07-31T12:28:05;19.50;99.90
17813;DHT22;9030;50.792;8.320;2023-07-31T12:30:38;19.50;99.90
17813;DHT22;9030;50.792;8.320;2023-07-31T12:33:06;19.50;99.90
17813;DHT22;9030;50.792;8.320;2023-07-31T12:35:37;19.30;99.90
17813;DHT22;9030;50.792;8.320;2023-07-31T12:38:04;19.20;99.90
17813;DHT22;9030;50.792;8.320;2023-07-31T12:40:30;19.20;99.90
17813;DHT22;9030;50.792;8.320;2023-07-31T12:42:57;19.20;99.90
17813;DHT22;9030;50.792;8.320;2023-07-31T12:45:24;19.30;99.90
17813;DHT22;9030;50.792;8.320;2023-07-31T12:47:52;19.40;99.90
17813;DHT22;9030;50.792;8.320;2023-07-31T12:50:18;19.60;99.90
17813;DHT22;9030;50.792;8.320;2023-07-31T12:52:45;19.80;99.90
17813;DHT22;9030;50.792;8.320;2023-07-31T12:55:12;19.80;99.90
17813;DHT22;9030;50.792;8.320;2023-07-31T12:57:40;19.80;99.90
17813;DHT22;9030;50.792;8.320;2023-07-31T13:00:08;19.70;99.90
17813;DHT22;9030;50.792;8.320;2023-07-31T13:02:34;19.50;99.90
17813;DHT22;9030;50.792;8.320;2023-07-31T13:05:03;19.60;99.90
17813;DHT22;9030;50.792;8.320;2023-07-31T13:07:30;19.60;99.90
17813;DHT22;9030;50.792;8.320;2023-07-31T13:09:56;19.50;99.90
17813;DHT22;9030;50.792;8.320;2023-07-31T13:12:23;19.30;99.90
17813;DHT22;9030;50.792;8.320;2023-07-31T13:14:50;19.40;99.90
17813;DHT22;9030;50.792;8.320;2023-07-31T13:17:17;19.50;99.90
17813;DHT22;9030;50.792;8.320;2023-07-31T13:19:44;19.80;99.90
17813;DHT22;9030;50.792;8.320;2023-07-31T13:22:12;19.90;99.90
17813;DHT22;9030;50.792;8.320;2023-07-31T13:24:39;20.00;99.90
17813;DHT22;9030;50.792;8.320;2023-07-31T13:27:05;19.90;99.90
17813;DHT22;9030;50.792;8.320;2023-07-31T13:29:32;20.10;99.90
17813;DHT22;9030;50.792;8.320;2023-07-31T13:31:59;20.10;99.90
17813;DHT22;9030;50.792;8.320;2023-07-31T13:34:25;20.20;99.90
17813;DHT22;9030;50.792;8.320;2023-07-31T13:36:54;20.20;99.90
17813;DHT22;9030;50.792;8.320;2023-07-31T13:39:22;20.00;99.90
17813;DHT22;9030;50.792;8.320;2023-07-31T13:41:49;19.80;99.90
17813;DHT22;9030;50.792;8.320;2023-07-31T13:44:16;20.00;99.90
17813;DHT22;9030;50.792;8.320;2023-07-31T13:46:42;20.20;99.90
17813;DHT22;9030;50.792;8.320;2023-07-31T13:49:09;20.50;99.90
17813;DHT22;9030;50.792;8.320;2023-07-31T13:51:35;20.70;99.90
17813;DHT22;9030;50.792;8.320;2023-07-31T13:54:04;20.90;99.90
17813;DHT22;9030;50.792;8.320;2023-07-31T13:56:33;20.80;99.90
17813;DHT22;9030;50.792;8.320;2023-07-31T13:59:00;20.80;99.90
17813;DHT22;9030;50.792;8.320;2023-07-31T14:01:27;20.60;99.90
17813;DHT22;9030;50.792;8.320;2023-07-31T14:03:53;20.40;99.90
17813;DHT22;9030;50.792;8.320;2023-07-31T14:06:20;20.30;99.90
17813;DHT22;9030;50.792;8.320;2023-07-31T14:08:47;20.40;99.90
17813;DHT22;9030;50.792;8.320;2023-07-31T14:11:13;20.30;99.90
17813;DHT22;9030;50.792;8.320;2023-07-31T14:13:41;20.40;99.90
17813;DHT22;9030;50.792;8.320;2023-07-31T14:16:08;20.30;99.90
17813;DHT22;9030;50.792;8.320;2023-07-31T14:18:35;20.30;99.90
17813;DHT22;9030;50.792;8.320;2023-07-31T14:21:01;20.40;99.90
17813;DHT22;9030;50.792;8.320;2023-07-31T14:23:28;20.40;99.90
17813;DHT22;9030;50.792;8.320;2023-07-31T14:25:54;20.60;99.90
17813;DHT22;9030;50.792;8.320;2023-07-31T14:28:21;20.60;99.90
17813;DHT22;9030;50.792;8.320;2023-07-31T14:30:49;20.60;99.90
17813;DHT22;9030;50.792;8.320;2023-07-31T14:33:16;20.40;99.90
17813;DHT22;9030;50.792;8.320;2023-07-31T14:35:43;20.40;99.90
17813;DHT22;9030;50.792;8.320;2023-07-31T14:38:10;20.30;99.90
17813;DHT22;9030;50.792;8.320;2023-07-31T14:40:36;20.10;99.90
17813;DHT22;9030;50.792;8.320;2023-07-31T14:43:03;19.90;99.90
17813;DHT22;9030;50.792;8.320;2023-07-31T14:45:30;19.80;99.90
17813;DHT22;9030;50.792;8.320;2023-07-31T14:47:58;19.80;99.90
17813;DHT22;9030;50.792;8.320;2023-07-31T14:50:25;19.70;99.90
17813;DHT22;9030;50.792;8.320;2023-07-31T14:52:52;19.80;99.90
17813;DHT22;9030;50.792;8.320;2023-07-31T14:55:19;19.80;99.90
17813;DHT22;9030;50.792;8.320;2023-07-31T14:57:46;19.80;99.90
17813;DHT22;9030;50.792;8.320;2023-07-31T15:00:13;19.90;99.90
17813;DHT22;9030;50.792;8.320;2023-07-31T15:02:40;20.30;99.90
17813;DHT22;9030;50.792;8.320;2023-07-31T15:05:09;20.50;99.90
17813;DHT22;9030;50.792;8.320;2023-07-31T15:07:35;20.40;99.90
17813;DHT22;9030;50.792;8.320;2023-07-31T15:10:03;20.40;99.90
17813;DHT22;9030;50.792;8.320;2023-07-31T15:12:30;20.30;99.90
17813;DHT22;9030;50.792;8.320;2023-07-31T15:14:57;20.30;99.90
17813;DHT22;9030;50.792;8.320;2023-07-31T15:17:24;20.30;99.90
17813;DHT22;9030;50.792;8.320;2023-07-31T15:19:51;20.30;99.90
17813;DHT22;9030;50.792;8.320;2023-07-31T15:22:19;20.20;99.90
17813;DHT22;9030;50.792;8.320;2023-07-31T15:24:45;20.20;99.90
17813;DHT22;9030;50.792;8.320;2023-07-31T15:27:14;20.20;99.90
17813;DHT22;9030;50.792;8.320;2023-07-31T15:29:41;20.20;99.90
17813;DHT22;9030;50.792;8.320;2023-07-31T15:32:08;20.20;99.90
17813;DHT22;9030;50.792;8.320;2023-07-31T15:34:35;20.00;99.90
17813;DHT22;9030;50.792;8.320;2023-07-31T15:37:01;19.70;99.90
17813;DHT22;9030;50.792;8.320;2023-07-31T15:39:29;19.50;99.90
17813;DHT22;9030;50.792;8.320;2023-07-31T15:41:56;19.40;99.90
17813;DHT22;9030;50.792;8.320;2023-07-31T15:44:22;19.20;99.90
17813;DHT22;9030;50.792;8.320;2023-07-31T15:46:49;19.00;99.90